Weather at Altiport de Croix de Coeur

Public forecast

Using degrees Celsius for public forecast. Weather courtesy of forecast.io.

Closest aviation weather report (METAR) to Altiport de Croix de Coeur

Closest report is Sion Airport, 6.9 nm (12.8 km) NE. Retrieved 2020/09/25 03:20 UTC (0 seconds ago):

LSGS 250320Z AUTO 07006KT 9999 FEW110 12/12 Q1001

Closest aviation forecast (TAF) to Altiport de Croix de Coeur

Forecast is more than 6 hours old.

Closest forecast is Payerne Air Base, 45.2 nm (83.7 km) NNW. Retrieved 2020/09/24 17:00 UTC (10 hours ago):

TAF LSMP 241625Z 2417/2523 23010KT 9999 FEW030 SCT070 PROB40 TEMPO 2418/2506 SHRA SCT045TCU PROB40 TEMPO 2500/2506 27015G30KT PROB30 TEMPO 2516/2523 TSRA SCT045CB